Time;durP1;ratioP1;P1;durP2;ratioP2;P2;SDS_P1;SDS_P2;PMS_P1;PMS_P2;Temp;Humidity;BMP_temperature;BMP_pressure;BME280_temperature;BME280_humidity;BME280_pressure;Samples;Min_cycle;Max_cycle;Signal;HPM_P1;HPM_P2
2022/11/18 00:01:07;;;;;;;2.55;1.98;;;17.60;80.50;;;;;;5013146;28;20203;-70
2022/11/18 00:03:33;;;;;;;2.22;1.90;;;17.60;80.50;;;;;;4996789;28;20188;-70
2022/11/18 00:05:59;;;;;;;3.05;2.30;;;17.60;80.60;;;;;;5014426;28;20264;-70
2022/11/18 00:08:25;;;;;;;2.78;2.50;;;17.60;80.70;;;;;;5013356;28;20252;-70
2022/11/18 00:10:51;;;;;;;2.95;2.30;;;17.50;80.70;;;;;;4996191;28;20184;-71
2022/11/18 00:16:06;;;;;;;3.40;2.33;;;17.60;80.70;;;;;;5013863;28;20200;-70
2022/11/18 00:18:32;;;;;;;6.07;3.22;;;17.60;80.60;;;;;;5013119;28;20200;-70
2022/11/18 00:21:08;;;;;;;5.05;3.58;;;17.60;80.60;;;;;;4996697;28;20184;-70
2022/11/18 00:23:34;;;;;;;4.53;3.30;;;17.60;80.60;;;;;;5012658;28;20188;-70
2022/11/18 00:26:10;;;;;;;5.88;3.70;;;17.60;80.60;;;;;;5012734;28;20192;-71
2022/11/18 00:28:36;;;;;;;4.63;3.03;;;17.60;80.60;;;;;;5012671;28;20584;-70
2022/11/18 00:31:08;;;;;;;4.63;3.38;;;17.60;80.60;;;;;;5013841;28;20244;-70
2022/11/18 00:33:35;;;;;;;4.60;3.20;;;17.60;81.30;;;;;;5012857;28;20644;-69
2022/11/18 00:36:02;;;;;;;4.88;3.25;;;17.60;80.60;;;;;;5012207;28;20574;-70
2022/11/18 00:38:29;;;;;;;5.82;3.97;;;17.50;80.50;;;;;;5012296;28;20306;-70
2022/11/18 00:41:03;;;;;;;7.88;5.22;;;17.60;80.70;;;;;;4995769;28;20184;-70
2022/11/18 00:43:30;;;;;;;6.57;4.65;;;17.50;80.50;;;;;;5012470;28;20222;-70
2022/11/18 00:45:56;;;;;;;5.75;4.50;;;17.60;80.70;;;;;;5012320;28;20191;-70
2022/11/18 00:48:22;;;;;;;7.10;4.53;;;17.50;80.60;;;;;;5012204;28;20188;-70
2022/11/18 00:50:54;;;;;;;7.85;5.35;;;17.60;80.70;;;;;;5012426;28;20175;-70
2022/11/18 00:53:23;;;;;;;7.88;5.22;;;17.50;80.60;;;;;;5013744;28;20180;-70
2022/11/18 00:55:50;;;;;;;7.20;4.70;;;17.60;80.50;;;;;;4995560;28;20279;-71
2022/11/18 00:58:16;;;;;;;7.20;4.95;;;17.50;81.30;;;;;;5013240;28;20187;-70
2022/11/18 01:00:45;;;;;;;8.00;5.93;;;17.50;80.50;;;;;;5012305;28;20227;-70
2022/11/18 01:03:11;;;;;;;7.53;4.78;;;17.50;80.50;;;;;;5012106;28;20256;-70
2022/11/18 01:05:38;;;;;;;8.75;5.82;;;17.60;80.60;;;;;;5011760;28;20635;-70
2022/11/18 01:08:12;;;;;;;7.57;4.90;;;17.60;80.60;;;;;;5011788;28;20574;-68
2022/11/18 01:10:39;;;;;;;6.70;5.10;;;17.60;80.60;;;;;;5013178;28;20251;-68
2022/11/18 01:13:22;;;;;;;6.95;5.22;;;17.50;80.50;;;;;;4995519;28;20184;-68
2022/11/18 01:15:54;;;;;;;7.47;4.55;;;17.50;80.60;;;;;;5012835;28;20204;-68
2022/11/18 01:18:30;;;;;;;7.45;4.88;;;17.50;80.60;;;;;;4995602;28;20187;-68
2022/11/18 01:21:01;;;;;;;8.00;5.32;;;17.50;80.60;;;;;;4995238;28;20184;-68
2022/11/18 01:23:27;;;;;;;6.38;4.78;;;17.50;80.60;;;;;;4995437;28;20200;-68
2022/11/18 01:25:53;;;;;;;7.38;4.95;;;17.50;80.60;;;;;;4995475;28;20287;-69
2022/11/18 01:28:19;;;;;;;8.15;5.53;;;17.50;80.50;;;;;;5011471;28;20266;-67
2022/11/18 01:30:45;;;;;;;6.45;4.32;;;17.60;80.70;;;;;;4995456;28;20192;-68
2022/11/18 01:33:12;;;;;;;6.30;4.60;;;17.50;80.50;;;;;;5011871;28;20207;-68
2022/11/18 01:35:41;;;;;;;7.82;4.68;;;17.50;80.50;;;;;;5011432;28;20208;-69
2022/11/18 01:38:09;;;;;;;5.90;4.50;;;17.50;80.60;;;;;;5012810;28;20275;-69
2022/11/18 01:40:37;;;;;;;5.90;4.18;;;17.50;80.60;;;;;;4995062;28;20187;-68
2022/11/18 01:43:15;;;;;;;5.18;3.92;;;17.50;80.50;;;;;;5011421;28;20234;-68
2022/11/18 01:45:44;;;;;;;7.22;4.88;;;17.50;80.40;;;;;;4995282;28;20207;-68
2022/11/18 01:48:30;;;;;;;6.07;4.13;;;17.50;80.50;;;;;;4995209;28;20195;-68
2022/11/18 01:51:02;;;;;;;5.32;4.10;;;17.50;80.50;;;;;;5011535;28;20172;-68
2022/11/18 01:53:36;;;;;;;5.43;4.00;;;17.50;80.60;;;;;;5011234;28;20574;-68
2022/11/18 01:56:17;;;;;;;5.35;3.92;;;17.50;80.50;;;;;;5010969;28;20234;-68
2022/11/18 01:58:56;;;;;;;4.90;3.90;;;17.50;80.50;;;;;;5011235;28;20220;-69
2022/11/18 02:01:22;;;;;;;5.90;4.03;;;17.50;80.50;;;;;;4994884;28;20255;-68
2022/11/18 02:03:51;;;;;;;4.88;3.58;;;17.50;80.50;;;;;;5011554;28;20231;-69
2022/11/18 02:06:17;;;;;;;5.97;4.10;;;17.50;80.50;;;;;;5010990;28;20203;-68
2022/11/18 02:08:44;;;;;;;4.45;3.33;;;17.50;80.50;;;;;;5011044;28;20208;-68
2022/11/18 02:14:02;;;;;;;5.25;3.63;;;17.50;80.50;;;;;;5011460;28;20181;-68
2022/11/18 02:16:59;;;;;;;4.95;3.40;;;17.50;80.60;;;;;;4994909;28;20218;-68
2022/11/18 02:19:47;;;;;;;4.50;3.58;;;17.50;80.50;;;;;;5011178;28;20229;-68
2022/11/18 02:23:01;;;;;;;5.18;3.65;;;17.50;80.50;;;;;;5011198;28;20219;-68
2022/11/18 02:26:01;;;;;;;5.15;3.60;;;17.50;80.50;;;;;;5010957;28;20191;-68
2022/11/18 02:28:58;;;;;;;4.72;3.45;;;17.50;80.50;;;;;;4991854;28;20200;-68
2022/11/18 02:31:34;;;;;;;4.68;3.15;;;17.50;80.60;;;;;;5040382;23;20231;-69
2022/11/18 02:34:12;;;;;;;5.53;3.30;;;17.50;80.50;;;;;;5018117;28;20207;-68
2022/11/18 02:37:02;;;;;;;3.67;3.17;;;17.50;80.60;;;;;;5017762;28;20207;-68
2022/11/18 02:39:41;;;;;;;3.47;3.05;;;17.50;80.60;;;;;;5018025;28;20339;-68
2022/11/18 02:42:13;;;;;;;4.85;3.25;;;17.50;80.50;;;;;;5001668;28;20268;-69
2022/11/18 02:44:46;;;;;;;3.65;2.88;;;17.50;80.50;;;;;;5018114;28;20170;-68
2022/11/18 02:47:15;;;;;;;4.70;3.10;;;17.50;80.50;;;;;;5017927;28;20270;-68
2022/11/18 02:49:48;;;;;;;3.28;2.78;;;17.50;80.60;;;;;;5034265;28;20183;-68
2022/11/18 02:52:15;;;;;;;2.60;2.40;;;17.50;80.60;;;;;;5018115;28;20179;-68
2022/11/18 02:54:46;;;;;;;3.15;2.50;;;17.50;80.60;;;;;;5034190;28;20573;-69
2022/11/18 02:57:14;;;;;;;3.28;2.70;;;17.50;80.60;;;;;;5017485;28;20182;-68
2022/11/18 02:59:40;;;;;;;3.80;2.78;;;17.50;80.60;;;;;;5017769;28;20183;-68
2022/11/18 03:02:05;;;;;;;3.08;2.40;;;17.50;80.60;;;;;;5001162;28;20179;-69
2022/11/18 03:04:33;;;;;;;3.38;2.65;;;17.50;80.60;;;;;;5001216;28;20230;-68
2022/11/18 03:07:34;;;;;;;3.17;2.20;;;17.50;80.60;;;;;;5017557;28;20187;-68
2022/11/18 03:10:01;;;;;;;2.80;2.40;;;17.50;80.60;;;;;;5000981;28;20218;-68
2022/11/18 03:12:54;;;;;;;3.40;2.40;;;17.50;80.60;;;;;;5017489;28;20190;-68
2022/11/18 03:15:35;;;;;;;3.65;2.65;;;17.50;80.50;;;;;;5017260;28;20310;-69
2022/11/18 03:18:41;;;;;;;2.97;2.38;;;17.50;80.60;;;;;;5017521;28;20182;-69
2022/11/18 03:21:30;;;;;;;3.60;2.97;;;17.50;80.60;;;;;;5017450;28;20215;-68
2022/11/18 03:24:08;;;;;;;3.20;2.40;;;17.50;80.60;;;;;;5034803;28;20197;-68
2022/11/18 03:26:46;;;;;;;2.17;1.90;;;17.50;80.60;;;;;;5016872;28;20183;-68
2022/11/18 03:29:25;;;;;;;2.20;1.95;;;17.50;80.60;;;;;;5017071;28;20229;-68
2022/11/18 03:32:02;;;;;;;3.33;1.70;;;17.50;80.60;;;;;;5008862;28;20191;-68
2022/11/18 03:34:38;;;;;;;2.47;2.03;;;17.50;80.60;;;;;;5017212;28;20174;-69
2022/11/18 03:37:10;;;;;;;2.40;1.98;;;17.50;80.70;;;;;;5033143;28;20218;-68
2022/11/18 03:39:43;;;;;;;2.22;2.00;;;17.50;80.70;;;;;;5034335;28;20195;-68
2022/11/18 03:42:30;;;;;;;2.30;2.10;;;17.50;80.70;;;;;;5008829;28;20191;-68
2022/11/18 03:45:15;;;;;;;2.03;1.80;;;17.50;80.70;;;;;;5033293;28;20171;-68
2022/11/18 03:47:50;;;;;;;2.10;1.83;;;17.50;80.70;;;;;;5025042;28;20332;-68
2022/11/18 03:50:26;;;;;;;2.70;2.00;;;17.50;80.80;;;;;;5000297;28;20206;-68
2022/11/18 03:52:53;;;;;;;2.97;2.05;;;17.50;80.80;;;;;;5033102;28;20171;-68
2022/11/18 03:55:49;;;;;;;2.60;1.95;;;17.50;80.80;;;;;;5000063;28;20203;-68
2022/11/18 03:59:10;;;;;;;2.13;1.90;;;17.50;80.90;;;;;;5023041;28;20204;-69
2022/11/18 04:01:44;;;;;;;2.10;1.70;;;17.50;81.00;;;;;;5008014;28;20232;-67
2022/11/18 04:04:11;;;;;;;2.63;1.92;;;17.50;80.80;;;;;;5029963;28;20263;-68
2022/11/18 04:06:49;;;;;;;2.53;1.67;;;17.50;80.80;;;;;;4996837;28;20188;-68
2022/11/18 04:09:23;;;;;;;2.25;1.85;;;17.50;80.80;;;;;;5029454;28;20179;-68
2022/11/18 04:12:01;;;;;;;2.60;2.10;;;17.50;81.00;;;;;;5014118;28;20207;-68
2022/11/18 04:14:39;;;;;;;2.13;1.63;;;17.50;81.00;;;;;;4996536;28;20568;-68
2022/11/18 04:17:19;;;;;;;2.20;1.75;;;17.50;81.00;;;;;;5012571;28;20262;-68
2022/11/18 04:19:45;;;;;;;2.95;1.95;;;17.50;80.90;;;;;;5029178;28;20212;-68
2022/11/18 04:22:11;;;;;;;2.63;1.90;;;17.50;80.90;;;;;;4996334;28;20264;-69
2022/11/18 04:24:38;;;;;;;2.50;1.80;;;17.50;80.90;;;;;;4996572;28;20192;-68
2022/11/18 04:27:05;;;;;;;2.10;1.60;;;17.50;80.80;;;;;;5012555;28;20291;-68
2022/11/18 04:29:32;;;;;;;2.42;1.95;;;17.50;80.90;;;;;;4996484;28;20196;-68
2022/11/18 04:32:00;;;;;;;1.90;1.30;;;17.50;80.90;;;;;;5012629;28;20184;-68
2022/11/18 04:34:25;;;;;;;2.00;1.70;;;17.50;80.90;;;;;;5029190;28;20255;-68
2022/11/18 04:36:51;;;;;;;1.88;1.50;;;17.50;80.90;;;;;;4995906;28;20294;-68
2022/11/18 04:39:18;;;;;;;1.85;1.55;;;17.50;80.90;;;;;;4996347;28;20208;-68
2022/11/18 04:41:57;;;;;;;1.95;1.70;;;17.50;81.00;;;;;;4995713;28;20204;-68
2022/11/18 04:44:25;;;;;;;2.10;1.75;;;17.50;81.00;;;;;;5027543;28;20183;-69
2022/11/18 04:46:51;;;;;;;1.80;1.33;;;17.50;81.00;;;;;;4995994;28;20180;-68
2022/11/18 04:49:16;;;;;;;1.63;1.23;;;17.50;80.90;;;;;;5028814;28;20185;-68
2022/11/18 04:51:43;;;;;;;2.05;1.30;;;17.50;80.90;;;;;;4996090;28;20199;-68
2022/11/18 04:54:10;;;;;;;1.65;1.40;;;17.50;81.00;;;;;;5012538;28;20255;-68
2022/11/18 04:56:36;;;;;;;1.70;1.42;;;17.50;80.90;;;;;;4995734;28;20679;-68
2022/11/18 04:59:04;;;;;;;1.40;1.30;;;17.50;81.00;;;;;;5013716;28;20195;-68
2022/11/18 05:01:30;;;;;;;1.20;1.10;;;17.50;80.90;;;;;;4995651;28;20758;-69
2022/11/18 05:03:56;;;;;;;1.63;1.42;;;17.50;80.90;;;;;;5012206;28;20270;-68
2022/11/18 05:06:22;;;;;;;1.58;1.30;;;17.50;80.90;;;;;;5012974;28;20212;-69
2022/11/18 05:08:48;;;;;;;1.50;1.27;;;17.50;80.90;;;;;;4995634;28;20184;-69
2022/11/18 05:13:58;;;;;;;1.50;1.40;;;17.50;80.90;;;;;;5011857;28;20179;-68
2022/11/18 05:16:24;;;;;;;1.88;1.45;;;17.50;80.90;;;;;;4995451;28;20211;-68
2022/11/18 05:18:50;;;;;;;1.50;1.30;;;17.50;81.00;;;;;;4995756;28;20266;-68
2022/11/18 05:21:16;;;;;;;1.77;1.33;;;17.50;81.10;;;;;;4995385;28;20211;-68
2022/11/18 05:23:42;;;;;;;1.42;1.20;;;17.50;81.00;;;;;;4995254;28;20188;-68
2022/11/18 05:26:10;;;;;;;1.60;1.35;;;17.50;81.10;;;;;;5011253;28;20226;-68
2022/11/18 05:28:37;;;;;;;1.90;1.20;;;17.50;81.10;;;;;;5013739;28;20191;-69
2022/11/18 05:31:09;;;;;;;1.20;1.10;;;17.50;81.10;;;;;;5014704;28;20211;-69
2022/11/18 05:33:35;;;;;;;1.77;1.20;;;17.50;81.00;;;;;;4998385;28;20191;-68
2022/11/18 05:36:08;;;;;;;2.28;1.08;;;17.50;80.90;;;;;;5031015;28;20199;-69
2022/11/18 05:38:34;;;;;;;1.20;1.10;;;17.50;81.00;;;;;;5031213;28;20183;-69
2022/11/18 05:41:01;;;;;;;1.80;1.27;;;17.50;81.20;;;;;;4998367;28;20203;-68
2022/11/18 05:43:28;;;;;;;1.50;1.23;;;17.50;81.10;;;;;;5014614;28;20187;-68
2022/11/18 05:45:54;;;;;;;1.13;1.02;;;17.50;81.10;;;;;;5014526;28;20183;-69
2022/11/18 05:48:20;;;;;;;1.20;1.10;;;17.50;81.10;;;;;;5031077;28;20182;-68
2022/11/18 05:50:49;;;;;;;1.80;1.20;;;17.50;81.10;;;;;;5014476;28;20203;-68
2022/11/18 05:53:18;;;;;;;1.55;1.10;;;17.50;81.00;;;;;;4998375;28;20191;-68
2022/11/18 05:55:55;;;;;;;1.30;1.20;;;17.50;81.10;;;;;;5030954;28;20219;-68
2022/11/18 05:58:21;;;;;;;1.52;1.15;;;17.50;80.90;;;;;;5014914;28;20175;-69
2022/11/18 06:00:54;;;;;;;1.20;1.10;;;17.50;80.80;;;;;;5032184;28;20250;-68
2022/11/18 06:03:34;;;;;;;1.17;0.98;;;17.50;80.80;;;;;;5014742;28;20175;-69
2022/11/18 06:06:04;;;;;;;1.13;1.00;;;17.50;81.00;;;;;;5033677;28;20236;-69
2022/11/18 06:08:36;;;;;;;2.28;1.23;;;17.50;81.10;;;;;;5002489;28;20248;-68
2022/11/18 06:11:02;;;;;;;1.13;1.02;;;17.50;81.10;;;;;;5020926;28;20210;-69
2022/11/18 06:13:39;;;;;;;1.35;1.00;;;17.50;81.10;;;;;;5017932;28;20265;-69
2022/11/18 06:16:05;;;;;;;1.02;0.93;;;17.50;81.00;;;;;;5035445;28;20260;-69
2022/11/18 06:18:33;;;;;;;1.60;1.10;;;17.50;81.20;;;;;;5035193;28;20220;-68
2022/11/18 06:21:04;;;;;;;1.35;1.00;;;17.50;81.10;;;;;;4999463;28;20717;-69
2022/11/18 06:23:36;;;;;;;1.63;1.20;;;17.50;81.10;;;;;;5015863;28;20183;-69
2022/11/18 06:26:02;;;;;;;2.28;1.05;;;17.50;81.00;;;;;;4999507;28;20191;-70
2022/11/18 06:28:29;;;;;;;1.80;1.10;;;17.50;80.90;;;;;;5016097;28;20199;-69
2022/11/18 06:30:55;;;;;;;1.33;1.10;;;17.50;80.90;;;;;;5015686;28;20308;-68
2022/11/18 06:33:20;;;;;;;1.85;1.02;;;17.50;81.00;;;;;;5032448;28;20233;-69
2022/11/18 06:35:46;;;;;;;3.17;1.00;;;17.50;81.00;;;;;;5017477;28;20207;-69
2022/11/18 06:38:12;;;;;;;2.22;1.25;;;17.40;80.80;;;;;;5017117;28;20238;-68
2022/11/18 06:40:38;;;;;;;2.58;1.13;;;17.50;81.10;;;;;;5033829;28;20199;-69
2022/11/18 06:48:41;;;;;;;1.48;1.00;;;17.50;81.00;;;;;;5017325;28;20261;-69
2022/11/18 06:51:07;;;;;;;1.38;1.00;;;17.50;81.00;;;;;;5017213;28;20219;-69
2022/11/18 06:53:34;;;;;;;1.48;1.08;;;17.50;81.00;;;;;;5017405;28;20180;-69
2022/11/18 06:56:11;;;;;;;2.05;1.20;;;17.50;80.90;;;;;;5016996;28;20219;-69
2022/11/18 06:58:37;;;;;;;2.00;1.13;;;17.50;81.00;;;;;;5034998;28;20190;-68
2022/11/18 07:01:20;;;;;;;1.83;1.20;;;17.50;81.00;;;;;;5033581;28;20199;-68
2022/11/18 07:03:47;;;;;;;1.80;1.20;;;17.50;80.90;;;;;;5017067;28;20189;-69
2022/11/18 07:06:18;;;;;;;1.10;1.00;;;17.50;81.00;;;;;;5016782;28;20179;-68
2022/11/18 07:08:44;;;;;;;1.67;1.00;;;17.50;81.10;;;;;;5034728;28;20191;-68
2022/11/18 07:11:13;;;;;;;1.27;1.13;;;17.50;81.00;;;;;;5016851;28;20203;-69
2022/11/18 07:13:40;;;;;;;1.17;0.95;;;17.40;81.00;;;;;;5016835;28;20183;-69
2022/11/18 07:16:09;;;;;;;1.45;0.90;;;17.50;81.00;;;;;;5033197;28;20268;-68
2022/11/18 07:18:38;;;;;;;1.90;0.90;;;17.50;81.00;;;;;;5015942;28;20275;-69
2022/11/18 07:21:07;;;;;;;2.15;1.40;;;17.50;81.00;;;;;;5016406;28;20199;-69
2022/11/18 07:23:34;;;;;;;1.80;1.10;;;17.50;81.00;;;;;;5033295;28;20270;-69
2022/11/18 07:26:00;;;;;;;0.80;0.80;;;17.50;80.90;;;;;;5032881;28;20190;-72
2022/11/18 07:28:28;;;;;;;1.83;1.20;;;17.50;81.00;;;;;;5033175;28;20636;-68
2022/11/18 07:31:18;;;;;;;1.88;1.25;;;17.50;80.90;;;;;;5016305;28;20215;-69
2022/11/18 07:33:46;;;;;;;1.27;0.93;;;17.50;80.90;;;;;;5033020;28;20198;-68
2022/11/18 07:36:17;;;;;;;1.85;1.02;;;17.50;80.90;;;;;;5016347;28;20237;-68
2022/11/18 07:38:43;;;;;;;1.38;1.08;;;17.50;80.90;;;;;;5016563;28;20263;-69
2022/11/18 07:41:16;;;;;;;2.72;1.25;;;17.50;80.80;;;;;;5016364;28;20258;-69
2022/11/18 07:43:43;;;;;;;1.83;1.20;;;17.40;80.80;;;;;;5032873;28;20195;-69
2022/11/18 07:46:09;;;;;;;2.08;1.02;;;17.50;80.90;;;;;;4998274;28;20183;-69
2022/11/18 07:48:35;;;;;;;2.20;0.88;;;17.50;81.00;;;;;;4996225;28;20581;-68
2022/11/18 07:51:01;;;;;;;1.83;1.20;;;17.50;80.90;;;;;;5015934;28;20206;-68
2022/11/18 07:53:30;;;;;;;0.98;0.90;;;17.50;80.90;;;;;;5032834;28;20578;-69
2022/11/18 07:55:56;;;;;;;1.35;1.20;;;17.50;80.90;;;;;;5033735;28;20213;-68
2022/11/18 07:58:21;;;;;;;1.58;0.90;;;17.50;80.90;;;;;;5032404;28;20183;-69
2022/11/18 08:00:47;;;;;;;1.27;0.90;;;17.50;80.90;;;;;;5015804;28;20207;-69
2022/11/18 08:03:13;;;;;;;1.35;0.95;;;17.50;80.80;;;;;;5032423;28;20184;-69
2022/11/18 08:05:39;;;;;;;0.95;0.80;;;17.50;80.80;;;;;;5015863;28;20222;-71
2022/11/18 08:08:05;;;;;;;1.67;1.02;;;17.50;80.90;;;;;;5015735;28;20194;-70
2022/11/18 08:10:30;;;;;;;1.35;0.88;;;17.50;80.80;;;;;;5015669;28;20211;-68
2022/11/18 08:12:56;;;;;;;1.73;0.90;;;17.50;80.80;;;;;;5032414;28;20187;-68
2022/11/18 08:15:23;;;;;;;3.67;1.10;;;17.50;80.80;;;;;;5015260;28;20219;-68
2022/11/18 08:17:50;;;;;;;1.27;0.90;;;17.50;80.80;;;;;;5031886;28;20604;-69
2022/11/18 08:20:15;;;;;;;0.90;0.80;;;17.50;80.80;;;;;;5016006;28;20207;-71
2022/11/18 08:22:41;;;;;;;2.25;1.17;;;17.50;80.70;;;;;;5032242;28;20245;-68
2022/11/18 08:25:08;;;;;;;1.48;0.90;;;17.50;80.70;;;;;;5033288;28;20197;-69
2022/11/18 08:27:34;;;;;;;2.35;1.20;;;17.50;80.80;;;;;;5031914;28;20282;-68
2022/11/18 08:32:29;;;;;;;1.30;1.00;;;17.50;80.80;;;;;;5011772;28;20222;-71
2022/11/18 08:34:55;;;;;;;2.10;1.20;;;17.50;80.80;;;;;;5012260;28;20188;-71
2022/11/18 08:37:20;;;;;;;0.75;0.70;;;17.50;80.80;;;;;;5011892;28;20224;-71
2022/11/18 08:39:46;;;;;;;1.40;0.70;;;17.40;80.80;;;;;;5012059;28;20184;-71
2022/11/18 08:42:12;;;;;;;0.98;0.95;;;17.50;80.90;;;;;;5014661;28;20207;-71
2022/11/18 08:44:37;;;;;;;1.75;1.08;;;17.50;80.90;;;;;;5015381;28;20534;-71
2022/11/18 08:47:03;;;;;;;1.65;0.77;;;17.50;80.90;;;;;;5031104;28;20184;-71
2022/11/18 08:49:29;;;;;;;1.08;0.90;;;17.50;80.90;;;;;;5032757;28;20190;-71
2022/11/18 08:51:55;;;;;;;1.42;0.90;;;17.50;80.90;;;;;;5014998;28;20205;-70
2022/11/18 08:54:20;;;;;;;0.82;0.75;;;17.50;80.90;;;;;;4998763;28;20195;-71
2022/11/18 08:56:46;;;;;;;1.05;0.95;;;17.50;80.90;;;;;;5014705;28;20698;-71
2022/11/18 08:59:12;;;;;;;2.22;1.00;;;17.50;80.90;;;;;;5015417;28;20221;-71
2022/11/18 09:01:40;;;;;;;1.33;1.00;;;17.50;80.80;;;;;;4998709;28;20646;-71
2022/11/18 09:04:06;;;;;;;1.25;0.80;;;17.50;80.90;;;;;;5015082;28;20190;-71
2022/11/18 09:06:33;;;;;;;2.45;0.98;;;17.50;80.90;;;;;;5031195;28;20191;-71
2022/11/18 09:09:00;;;;;;;1.88;0.90;;;17.50;80.90;;;;;;5031936;28;20174;-71
2022/11/18 09:11:26;;;;;;;1.33;0.82;;;17.50;80.80;;;;;;4998234;28;20211;-71
2022/11/18 09:14:01;;;;;;;0.80;0.80;;;17.40;80.70;;;;;;5014704;28;20195;-71
2022/11/18 09:16:30;;;;;;;1.52;0.80;;;17.50;80.90;;;;;;5032002;28;20309;-71
2022/11/18 09:18:57;;;;;;;1.55;1.00;;;17.50;80.80;;;;;;4998364;28;20684;-71
2022/11/18 09:21:24;;;;;;;2.47;0.95;;;17.50;80.80;;;;;;5014612;28;20222;-71
2022/11/18 09:23:50;;;;;;;0.77;0.77;;;17.50;80.80;;;;;;5032166;28;20180;-71
2022/11/18 09:26:20;;;;;;;1.98;0.90;;;17.50;80.90;;;;;;4997758;28;20187;-71
2022/11/18 09:28:46;;;;;;;1.25;0.63;;;17.50;80.90;;;;;;5014424;28;20191;-71
2022/11/18 09:31:16;;;;;;;0.73;0.60;;;17.50;80.90;;;;;;4998091;28;20279;-71
2022/11/18 09:33:42;;;;;;;1.10;1.00;;;17.50;80.90;;;;;;5032205;28;20179;-71
2022/11/18 09:36:18;;;;;;;1.05;0.95;;;17.50;80.90;;;;;;4998141;28;20589;-71
2022/11/18 09:38:44;;;;;;;0.75;0.73;;;17.50;80.90;;;;;;4997944;28;20183;-71
2022/11/18 09:41:38;;;;;;;0.95;0.80;;;17.50;80.90;;;;;;5013692;28;20358;-71
2022/11/18 09:44:40;;;;;;;1.00;1.00;;;17.50;80.90;;;;;;5031822;28;20199;-71
2022/11/18 09:47:33;;;;;;;1.13;0.70;;;17.50;80.70;;;;;;5014198;28;20197;-71
2022/11/18 09:50:09;;;;;;;0.70;0.70;;;17.40;80.70;;;;;;5030705;28;20189;-71
2022/11/18 09:52:37;;;;;;;0.93;0.60;;;17.50;81.70;;;;;;5031928;28;20179;-71
2022/11/18 09:55:16;;;;;;;1.15;0.77;;;17.50;81.00;;;;;;5030656;28;20190;-71
2022/11/18 09:57:47;;;;;;;1.08;0.65;;;17.50;80.90;;;;;;5030369;28;20332;-71
2022/11/18 10:00:20;;;;;;;1.58;0.80;;;17.50;80.90;;;;;;5030642;28;20207;-71
2022/11/18 10:02:56;;;;;;;1.23;1.00;;;17.50;80.90;;;;;;5031749;28;20179;-71
2022/11/18 10:05:29;;;;;;;0.88;0.70;;;17.50;80.90;;;;;;5014176;28;20190;-71
2022/11/18 10:08:22;;;;;;;3.08;0.90;;;17.50;80.90;;;;;;5013803;28;20198;-71
2022/11/18 10:11:04;;;;;;;1.17;0.82;;;17.50;80.90;;;;;;5027011;28;20211;-70
2022/11/18 10:14:20;;;;;;;0.90;0.80;;;17.50;80.90;;;;;;5011191;28;20168;-71
2022/11/18 10:17:43;;;;;;;0.80;0.70;;;17.50;81.00;;;;;;4975777;28;20227;-71
2022/11/18 10:20:35;;;;;;;0.80;0.80;;;17.50;81.00;;;;;;5011012;28;20573;-71
2022/11/18 10:23:20;;;;;;;1.25;0.93;;;17.50;80.90;;;;;;4978656;28;20176;-71
2022/11/18 10:25:46;;;;;;;0.80;0.80;;;17.50;80.90;;;;;;4978675;28;20188;-70
2022/11/18 10:28:30;;;;;;;1.00;0.88;;;17.50;80.80;;;;;;5011820;28;20186;-71
2022/11/18 10:31:09;;;;;;;0.90;0.85;;;17.50;80.90;;;;;;4994553;28;20212;-70
2022/11/18 10:33:35;;;;;;;0.98;0.80;;;17.50;80.80;;;;;;4994576;28;20194;-71
2022/11/18 10:36:15;;;;;;;0.85;0.73;;;17.50;80.90;;;;;;4994466;28;20212;-70
2022/11/18 10:38:41;;;;;;;2.50;0.85;;;17.50;80.70;;;;;;4978429;28;20184;-70
2022/11/18 10:41:20;;;;;;;1.83;0.98;;;17.50;80.80;;;;;;4978246;28;20291;-71
2022/11/18 10:43:56;;;;;;;0.90;0.75;;;17.50;80.80;;;;;;5010994;28;20267;-71
2022/11/18 10:46:25;;;;;;;0.60;0.60;;;17.50;80.90;;;;;;5010910;28;20214;-70
2022/11/18 10:49:09;;;;;;;1.27;0.90;;;17.50;80.90;;;;;;4994599;28;20196;-71
2022/11/18 10:52:09;;;;;;;0.80;0.80;;;17.50;80.90;;;;;;4995151;28;20239;-70
2022/11/18 10:54:35;;;;;;;0.60;0.60;;;17.40;80.70;;;;;;4981958;28;20211;-71
2022/11/18 10:57:09;;;;;;;0.73;0.57;;;17.50;80.80;;;;;;4998360;28;20215;-71
2022/11/18 10:59:40;;;;;;;0.70;0.70;;;17.50;80.90;;;;;;4998071;28;20198;-71
2022/11/18 11:02:39;;;;;;;0.63;0.60;;;17.50;81.00;;;;;;4998551;28;20200;-71
2022/11/18 11:05:35;;;;;;;0.90;0.73;;;17.50;80.90;;;;;;4974706;28;20291;-71
2022/11/18 11:08:18;;;;;;;0.90;0.70;;;17.50;80.90;;;;;;4980135;28;20196;-71
2022/11/18 11:10:55;;;;;;;1.63;0.90;;;17.50;80.90;;;;;;5014345;28;20210;-71
2022/11/18 11:13:25;;;;;;;2.15;1.00;;;17.50;80.90;;;;;;4998113;28;20200;-71
2022/11/18 11:15:55;;;;;;;0.75;0.73;;;17.50;80.80;;;;;;5014234;28;20223;-71
2022/11/18 11:18:42;;;;;;;0.88;0.70;;;17.50;80.90;;;;;;5014262;28;20180;-71
2022/11/18 11:21:17;;;;;;;0.93;0.82;;;17.50;80.90;;;;;;4997672;28;20207;-71
2022/11/18 11:23:45;;;;;;;0.80;0.80;;;17.50;80.80;;;;;;5013961;28;20192;-71
2022/11/18 11:26:45;;;;;;;0.70;0.60;;;17.50;80.90;;;;;;5015218;28;20234;-71
2022/11/18 11:29:50;;;;;;;0.75;0.70;;;17.50;80.90;;;;;;4981273;28;20303;-71
2022/11/18 11:32:38;;;;;;;1.15;0.80;;;17.50;80.90;;;;;;4981273;28;20222;-71
2022/11/18 11:35:20;;;;;;;0.85;0.63;;;17.50;80.80;;;;;;4997706;28;20226;-71
2022/11/18 11:37:59;;;;;;;0.68;0.68;;;17.50;80.80;;;;;;5013762;28;20188;-71
2022/11/18 11:40:58;;;;;;;2.88;0.70;;;17.50;80.80;;;;;;4997097;28;20203;-71
2022/11/18 11:43:46;;;;;;;0.55;0.55;;;17.50;80.80;;;;;;4997220;28;20188;-70
2022/11/18 11:46:21;;;;;;;1.00;0.90;;;17.50;80.90;;;;;;5013307;28;20180;-71
2022/11/18 11:49:15;;;;;;;0.90;0.75;;;17.50;81.00;;;;;;5000204;28;20183;-71
2022/11/18 11:51:50;;;;;;;0.57;0.50;;;17.50;80.90;;;;;;5013292;28;20258;-71
2022/11/18 11:54:30;;;;;;;0.73;0.70;;;17.40;80.80;;;;;;4997027;28;20194;-71
2022/11/18 11:57:30;;;;;;;1.00;0.90;;;17.50;80.90;;;;;;5013074;28;20234;-70
2022/11/18 12:00:04;;;;;;;0.95;0.65;;;17.50;81.00;;;;;;5019327;28;20223;-70
2022/11/18 12:03:21;;;;;;;1.88;0.80;;;17.50;80.90;;;;;;5017668;28;20171;-70
2022/11/18 12:05:46;;;;;;;1.20;0.75;;;17.50;80.80;;;;;;5000470;28;20226;-71
2022/11/18 12:08:21;;;;;;;0.70;0.70;;;17.50;80.80;;;;;;5016244;28;20179;-70
2022/11/18 12:11:14;;;;;;;0.70;0.70;;;17.50;80.90;;;;;;5016446;28;20206;-71
2022/11/18 12:14:25;;;;;;;0.80;0.80;;;17.50;80.90;;;;;;5034304;28;20176;-71
2022/11/18 12:17:12;;;;;;;0.70;0.70;;;17.50;80.80;;;;;;5015988;28;20198;-71
2022/11/18 12:19:38;;;;;;;0.60;0.60;;;17.50;80.80;;;;;;5016275;28;20183;-71
2022/11/18 12:22:05;;;;;;;0.82;0.75;;;17.50;80.80;;;;;;5032543;28;20199;-71
2022/11/18 12:24:37;;;;;;;0.70;0.70;;;17.50;80.80;;;;;;5029990;28;20172;-71
2022/11/18 12:27:13;;;;;;;1.02;0.73;;;17.50;80.90;;;;;;5015127;28;20188;-71
2022/11/18 12:29:54;;;;;;;1.08;0.70;;;17.50;80.90;;;;;;5010952;28;20175;-70
2022/11/18 12:32:45;;;;;;;0.80;0.70;;;17.50;81.10;;;;;;5010491;28;20191;-71
2022/11/18 12:35:11;;;;;;;0.93;0.80;;;17.50;80.90;;;;;;5012591;28;20219;-71
2022/11/18 12:37:50;;;;;;;0.88;0.82;;;17.50;80.90;;;;;;5012649;28;20212;-71
2022/11/18 12:40:43;;;;;;;0.90;0.90;;;17.50;81.00;;;;;;5012526;28;20203;-71
2022/11/18 12:43:46;;;;;;;1.50;0.80;;;17.50;81.00;;;;;;4995839;28;20189;-70
2022/11/18 12:46:34;;;;;;;1.10;0.90;;;17.50;80.90;;;;;;5012222;28;20187;-70
2022/11/18 12:49:21;;;;;;;1.20;0.80;;;17.50;80.80;;;;;;5012376;28;20195;-71
2022/11/18 12:52:44;;;;;;;0.98;0.88;;;17.50;80.90;;;;;;5012345;28;20257;-70
2022/11/18 12:55:20;;;;;;;1.08;0.90;;;17.50;80.80;;;;;;4953086;28;20203;-71
2022/11/18 12:57:46;;;;;;;1.08;0.68;;;17.50;80.90;;;;;;5032042;28;20206;-71
2022/11/18 13:00:21;;;;;;;1.30;0.70;;;17.50;80.90;;;;;;5015644;28;20211;-71
2022/11/18 13:03:00;;;;;;;0.88;0.80;;;17.50;81.00;;;;;;4998959;28;20186;-70
2022/11/18 13:05:33;;;;;;;1.10;1.00;;;17.50;80.90;;;;;;5031855;28;20230;-71
2022/11/18 13:08:12;;;;;;;0.65;0.60;;;17.50;81.00;;;;;;5032757;28;20179;-71
2022/11/18 13:13:45;;;;;;;0.80;0.60;;;17.50;81.00;;;;;;5031750;28;20183;-71
2022/11/18 13:19:04;;;;;;;0.70;0.70;;;17.50;80.90;;;;;;5031901;28;20273;-71
2022/11/18 13:24:19;;;;;;;1.42;0.93;;;17.60;81.10;;;;;;5031512;28;20240;-71
2022/11/18 13:26:51;;;;;;;1.50;0.70;;;17.50;80.70;;;;;;5031277;28;20187;-70
2022/11/18 13:29:51;;;;;;;1.35;0.90;;;17.60;81.00;;;;;;5031562;28;20341;-70
2022/11/18 13:32:27;;;;;;;0.70;0.70;;;17.60;80.80;;;;;;5016359;28;20215;-71
2022/11/18 13:34:57;;;;;;;0.77;0.77;;;17.60;81.00;;;;;;5013018;28;20194;-71
2022/11/18 13:37:29;;;;;;;1.27;0.90;;;17.60;81.00;;;;;;5024978;28;20211;-71
2022/11/18 13:39:56;;;;;;;1.15;0.95;;;17.50;81.00;;;;;;5013218;28;20184;-70
2022/11/18 13:42:25;;;;;;;1.30;0.60;;;17.50;81.10;;;;;;5014951;28;20187;-71
2022/11/18 13:44:57;;;;;;;1.42;0.90;;;17.60;81.20;;;;;;4998722;28;20187;-71
2022/11/18 13:47:44;;;;;;;1.58;0.60;;;17.60;80.90;;;;;;5031289;28;20184;-71